Time;durP1;ratioP1;P1;durP2;ratioP2;P2;SDS_P1;SDS_P2;PMS_P1;PMS_P2;Temp;Humidity;BMP_temperature;BMP_pressure;BME280_temperature;BME280_humidity;BME280_pressure;Samples;Min_cycle;Max_cycle;Signal;HPM_P1;HPM_P2
2022/09/20 00:02:16;;;;;;;10.75;6.88;;;;;;;10.26;100.00;102265.50;5013833;28;20030;-72
2022/09/20 00:04:41;;;;;;;11.70;6.65;;;;;;;10.27;100.00;102271.59;5013183;28;20104;-72
2022/09/20 00:07:07;;;;;;;15.57;7.60;;;;;;;10.24;100.00;102263.75;5012921;28;20088;-72
2022/09/20 00:09:32;;;;;;;13.70;7.38;;;;;;;10.24;100.00;102269.81;5013473;28;20030;-72
2022/09/20 00:11:58;;;;;;;14.20;6.97;;;;;;;10.17;100.00;102262.88;5013680;28;20033;-72
2022/09/20 00:14:24;;;;;;;14.25;7.32;;;;;;;10.20;100.00;102267.19;5012447;28;20076;-72
2022/09/20 00:16:49;;;;;;;10.80;6.60;;;;;;;10.19;100.00;102265.47;5013487;28;20033;-72
2022/09/20 00:19:20;;;;;;;16.98;7.40;;;;;;;10.20;100.00;102264.59;5013103;28;20488;-72
2022/09/20 00:21:46;;;;;;;14.88;7.53;;;;;;;10.19;100.00;102265.47;5012781;28;20432;-72
2022/09/20 00:24:12;;;;;;;10.38;7.38;;;;;;;10.19;100.00;102262.84;5013514;28;20026;-72
2022/09/20 00:26:37;;;;;;;13.98;7.30;;;;;;;10.18;100.00;102253.31;5012518;28;20488;-72
2022/09/20 00:29:04;;;;;;;11.90;7.10;;;;;;;10.16;100.00;102255.03;5012656;28;20029;-72
2022/09/20 00:31:29;;;;;;;12.45;7.03;;;;;;;10.17;100.00;102259.38;5012927;28;20026;-72
2022/09/20 00:36:39;;;;;;;13.68;7.25;;;;;;;10.12;100.00;102261.13;5012746;28;20295;-72
2022/09/20 00:39:04;;;;;;;14.05;7.10;;;;;;;10.08;100.00;102258.50;5013296;28;20477;-72
2022/09/20 00:41:31;;;;;;;13.30;7.03;;;;;;;10.02;100.00;102266.31;5012078;28;20495;-72
2022/09/20 00:43:57;;;;;;;12.85;7.20;;;;;;;9.97;100.00;102265.44;5013171;28;20108;-72
2022/09/20 00:46:35;;;;;;;14.20;7.15;;;;;;;9.93;100.00;102268.03;5012696;28;20062;-72
2022/09/20 00:49:11;;;;;;;15.38;7.40;;;;;;;9.85;100.00;102273.22;5012426;28;20030;-72
2022/09/20 00:51:39;;;;;;;13.50;6.75;;;;;;;9.80;100.00;102274.94;5012956;28;20050;-72
2022/09/20 00:54:08;;;;;;;14.35;6.50;;;;;;;9.74;100.00;102269.72;5013146;28;20382;-72
2022/09/20 00:56:38;;;;;;;16.13;7.00;;;;;;;9.72;100.00;102266.25;5011982;28;20052;-71
2022/09/20 00:59:24;;;;;;;12.98;6.93;;;;;;;9.70;100.00;102270.59;5012837;28;20417;-71
2022/09/20 01:02:18;;;;;;;13.80;7.18;;;;;;;9.60;100.00;102261.88;5012922;28;20061;-72
2022/09/20 01:04:45;;;;;;;;;;;;;;;9.58;100.00;102268.78;5009347;28;20042;-72
2022/09/20 01:07:14;;;;;;;10.40;7.32;;;;;;;9.44;100.00;102266.16;5012798;28;20004;-72
2022/09/20 01:09:39;;;;;;;10.07;6.93;;;;;;;9.33;100.00;102262.66;5011689;28;20044;-72
2022/09/20 01:12:12;;;;;;;13.57;7.15;;;;;;;9.32;100.00;102264.38;5012798;28;20034;-72
2022/09/20 01:14:40;;;;;;;11.85;7.30;;;;;;;9.29;100.00;102266.97;5012575;28;20018;-72
2022/09/20 01:17:07;;;;;;;8.40;6.47;;;;;;;9.26;100.00;102266.94;5012004;28;20030;-72
2022/09/20 01:20:17;;;;;;;10.63;6.72;;;;;;;9.26;100.00;102268.69;5012455;28;20026;-72
2022/09/20 01:23:00;;;;;;;11.65;6.43;;;;;;;9.23;100.00;102261.72;5001708;28;20041;-72
2022/09/20 01:26:00;;;;;;;13.60;7.03;;;;;;;9.27;100.00;102267.81;5011945;28;20022;-72
2022/09/20 01:28:27;;;;;;;11.00;7.03;;;;;;;9.26;100.00;102260.88;5012446;28;20026;-72
2022/09/20 01:31:12;;;;;;;12.48;7.05;;;;;;;9.39;100.00;102267.88;5012080;28;20033;-72
2022/09/20 01:33:48;;;;;;;11.27;6.90;;;;;;;9.43;100.00;102263.56;5012373;28;20018;-72
2022/09/20 01:36:22;;;;;;;16.40;8.02;;;;;;;9.48;100.00;102256.63;5012554;28;20367;-72
2022/09/20 01:39:00;;;;;;;12.57;7.72;;;;;;;9.57;100.00;102261.84;5012466;28;20049;-71
2022/09/20 01:41:39;;;;;;;13.02;7.05;;;;;;;9.63;100.00;102264.50;5016141;28;20030;-72
2022/09/20 01:44:36;;;;;;;13.57;8.00;;;;;;;9.69;100.00;102266.25;5016194;28;20052;-72
2022/09/20 01:47:21;;;;;;;16.15;7.07;;;;;;;9.73;100.00;102266.25;5012029;28;20049;-72
2022/09/20 01:49:53;;;;;;;11.63;7.10;;;;;;;9.78;100.00;102261.06;5016245;28;20021;-72
2022/09/20 01:52:35;;;;;;;15.75;7.40;;;;;;;9.78;100.00;102271.50;5015349;28;20041;-72
2022/09/20 01:55:52;;;;;;;14.88;6.75;;;;;;;9.81;100.00;102266.28;5016013;28;20073;-72
2022/09/20 01:58:38;;;;;;;12.43;6.45;;;;;;;9.80;100.00;102270.59;4993247;28;20441;-72
2022/09/20 02:01:22;;;;;;;18.00;7.00;;;;;;;9.81;100.00;102269.75;5015695;28;20037;-72
2022/09/20 02:03:56;;;;;;;14.63;6.90;;;;;;;9.82;100.00;102266.28;5016155;28;20022;-72
2022/09/20 02:06:31;;;;;;;14.48;7.00;;;;;;;9.85;100.00;102268.03;5014716;28;20045;-72
2022/09/20 02:09:26;;;;;;;14.95;7.10;;;;;;;9.84;100.00;102259.34;5015853;28;20026;-71
2022/09/20 02:12:17;;;;;;;10.13;6.80;;;;;;;9.82;100.00;102253.25;5015496;28;20041;-72
2022/09/20 02:15:07;;;;;;;13.90;6.90;;;;;;;9.89;100.00;102261.09;5015006;28;20022;-71
2022/09/20 02:18:02;;;;;;;14.80;7.20;;;;;;;9.89;100.00;102254.13;5015356;28;20025;-72
2022/09/20 02:20:42;;;;;;;12.57;6.53;;;;;;;9.91;100.00;102257.63;5014793;28;20034;-72
2022/09/20 02:23:32;;;;;;;10.75;6.47;;;;;;;9.94;100.00;102261.94;5015499;28;20454;-71
2022/09/20 02:26:19;;;;;;;15.02;6.47;;;;;;;9.96;100.00;102266.28;5015235;28;20030;-72
2022/09/20 02:29:00;;;;;;;13.20;6.57;;;;;;;9.97;100.00;102259.34;5014671;28;20033;-72
2022/09/20 02:31:38;;;;;;;16.00;6.70;;;;;;;9.98;100.00;102263.72;5014946;28;20489;-71
2022/09/20 02:34:31;;;;;;;12.02;6.40;;;;;;;9.97;100.00;102259.34;5014639;28;20030;-72
2022/09/20 02:37:18;;;;;;;12.98;6.70;;;;;;;9.95;100.00;102254.16;5015195;28;20018;-72
2022/09/20 02:40:16;;;;;;;12.77;6.60;;;;;;;9.92;100.00;102258.50;5014972;28;20448;-72
2022/09/20 02:43:13;;;;;;;13.15;6.55;;;;;;;9.88;100.00;102257.63;5014342;28;20042;-72
2022/09/20 02:45:59;;;;;;;9.73;6.72;;;;;;;9.88;100.00;102257.63;5015009;28;20029;-72
2022/09/20 02:48:38;;;;;;;13.75;6.15;;;;;;;9.80;100.00;102254.09;5013969;28;20042;-72
2022/09/20 02:51:38;;;;;;;11.90;7.13;;;;;;;9.87;100.00;102261.06;5014551;28;20389;-72
2022/09/20 02:54:17;;;;;;;14.23;6.72;;;;;;;9.86;100.00;102254.13;5014963;28;20032;-72
2022/09/20 02:57:04;;;;;;;12.85;7.28;;;;;;;9.89;100.00;102259.34;5014244;28;20030;-72
2022/09/20 02:59:34;;;;;;;16.35;6.60;;;;;;;9.91;100.00;102260.22;5014582;28;20045;-72
2022/09/20 03:02:09;;;;;;;13.65;6.65;;;;;;;9.91;100.00;102251.50;5014038;28;20466;-72
2022/09/20 03:05:06;;;;;;;13.30;7.13;;;;;;;9.94;100.00;102249.81;5014503;28;20040;-72
2022/09/20 03:07:42;;;;;;;10.80;6.20;;;;;;;9.95;100.00;102256.75;5014113;28;20033;-71
2022/09/20 03:10:19;;;;;;;19.25;6.95;;;;;;;9.97;100.00;102257.63;5014079;28;20033;-72
2022/09/20 03:13:06;;;;;;;12.23;6.53;;;;;;;9.92;100.00;102238.50;5014431;28;20092;-72
2022/09/20 03:16:08;;;;;;;12.35;6.80;;;;;;;9.87;100.00;102234.16;5014165;28;20044;-72
2022/09/20 03:18:53;;;;;;;14.88;6.78;;;;;;;9.90;100.00;102253.25;4999052;28;20152;-72
2022/09/20 03:21:37;;;;;;;14.07;7.40;;;;;;;9.88;100.00;102257.63;5014556;28;20022;-72
2022/09/20 03:24:27;;;;;;;15.60;7.10;;;;;;;9.83;100.00;102254.97;5013935;28;20030;-72
2022/09/20 03:27:03;;;;;;;13.32;7.43;;;;;;;9.81;100.00;102254.13;5014226;28;20492;-72
2022/09/20 03:29:58;;;;;;;13.43;7.38;;;;;;;9.87;100.00;102255.00;5013870;28;20033;-72
2022/09/20 03:32:41;;;;;;;12.55;7.38;;;;;;;9.86;100.00;102251.53;5013533;28;20124;-72
2022/09/20 03:35:07;;;;;;;14.88;7.45;;;;;;;9.86;100.00;102254.13;5014050;28;20029;-72
2022/09/20 03:37:51;;;;;;;12.23;7.80;;;;;;;9.86;100.00;102264.53;5013214;28;20377;-72
2022/09/20 03:40:32;;;;;;;13.25;8.30;;;;;;;9.88;100.00;102265.44;5014029;28;20776;-72
2022/09/20 03:43:12;;;;;;;15.65;7.78;;;;;;;9.91;100.00;102262.84;5013911;28;20108;-72
2022/09/20 03:45:57;;;;;;;15.95;8.10;;;;;;;9.92;100.00;102264.56;5013240;28;20032;-72
2022/09/20 03:48:53;;;;;;;16.52;7.38;;;;;;;9.94;100.00;102265.44;5013767;28;20030;-72
2022/09/20 03:51:54;;;;;;;18.45;7.57;;;;;;;9.92;100.00;102251.53;5013075;28;20121;-72
2022/09/20 03:54:37;;;;;;;13.30;7.13;;;;;;;9.95;100.00;102264.56;5010693;28;20049;-72
2022/09/20 03:57:24;;;;;;;13.63;8.07;;;;;;;9.99;100.00;102262.84;5013756;28;20041;-71
2022/09/20 04:00:13;;;;;;;14.20;7.63;;;;;;;9.99;100.00;102255.03;5013199;28;20071;-71
2022/09/20 04:03:05;;;;;;;16.80;7.78;;;;;;;9.96;100.00;102255.00;5012948;28;20056;-72
2022/09/20 04:05:59;;;;;;;12.43;7.80;;;;;;;10.02;100.00;102263.72;5012628;28;20495;-72
2022/09/20 04:08:53;;;;;;;16.77;8.25;;;;;;;10.03;100.00;102249.81;5013235;28;20030;-72
2022/09/20 04:11:42;;;;;;;15.07;8.88;;;;;;;10.04;100.00;102256.78;5013576;28;20033;-72
2022/09/20 04:14:16;;;;;;;14.00;8.27;;;;;;;10.04;100.00;102264.59;5013268;28;20053;-72
2022/09/20 04:16:57;;;;;;;15.95;8.63;;;;;;;10.08;100.00;102262.84;5013306;28;20034;-72
2022/09/20 04:19:32;;;;;;;17.90;8.32;;;;;;;10.10;100.00;102253.28;5012571;28;20038;-72
2022/09/20 04:21:59;;;;;;;15.93;8.90;;;;;;;10.11;100.00;102238.53;5013562;28;20469;-71
2022/09/20 04:24:44;;;;;;;18.50;8.48;;;;;;;10.09;100.00;102236.78;5013116;28;20030;-71
2022/09/20 04:27:34;;;;;;;22.67;8.82;;;;;;;10.12;100.00;102242.88;5012809;28;20022;-72
2022/09/20 04:30:16;;;;;;;17.40;9.43;;;;;;;10.06;100.00;102235.91;5013564;28;20034;-71
2022/09/20 04:32:58;;;;;;;15.02;8.70;;;;;;;10.06;100.00;102246.34;5012765;28;20104;-72
2022/09/20 04:38:20;;;;;;;14.98;8.35;;;;;;;10.13;100.00;102253.28;5013760;28;20032;-72
2022/09/20 04:40:54;;;;;;;16.23;8.85;;;;;;;10.11;100.00;102251.56;5012451;28;20404;-72
2022/09/20 04:43:34;;;;;;;12.30;9.40;;;;;;;10.07;100.00;102248.97;5013168;28;20030;-72
2022/09/20 04:46:09;;;;;;;13.75;8.98;;;;;;;10.06;100.00;102246.34;5012916;28;20053;-72
2022/09/20 04:48:53;;;;;;;13.07;8.48;;;;;;;10.05;100.00;102252.44;5012421;28;20176;-72
2022/09/20 04:51:53;;;;;;;17.25;9.13;;;;;;;10.01;100.00;102259.38;5012997;28;20049;-72
2022/09/20 04:54:40;;;;;;;15.52;8.98;;;;;;;10.03;100.00;102256.75;4990021;28;20045;-72
2022/09/20 04:57:24;;;;;;;13.07;8.60;;;;;;;9.99;100.00;102257.63;5013171;28;20030;-71
2022/09/20 05:00:01;;;;;;;13.45;8.32;;;;;;;10.01;100.00;102264.59;5013063;28;20064;-72
2022/09/20 05:02:46;;;;;;;14.73;8.68;;;;;;;10.00;100.00;102265.44;5012157;28;20137;-72
2022/09/20 05:05:34;;;;;;;17.85;9.48;;;;;;;9.98;100.00;102261.97;5012973;28;20041;-72
2022/09/20 05:08:30;;;;;;;12.95;8.60;;;;;;;9.97;100.00;102268.06;5012722;28;20084;-72
2022/09/20 05:11:30;;;;;;;16.30;9.05;;;;;;;9.95;100.00;102264.56;5012397;28;20044;-72
2022/09/20 05:14:01;;;;;;;17.50;7.95;;;;;;;9.94;100.00;102267.16;5015143;28;20037;-72
2022/09/20 05:17:02;;;;;;;12.50;8.57;;;;;;;9.91;100.00;102268.03;5016003;28;20053;-72
2022/09/20 05:19:35;;;;;;;13.60;8.10;;;;;;;9.89;100.00;102279.31;5016328;28;20025;-72
2022/09/20 05:22:26;;;;;;;11.73;8.60;;;;;;;9.83;100.00;102281.03;5016674;28;20026;-72
2022/09/20 05:25:00;;;;;;;13.27;8.18;;;;;;;9.79;100.00;102274.09;4999987;28;20104;-72
2022/09/20 05:28:04;;;;;;;13.52;8.77;;;;;;;9.75;100.00;102274.94;5016336;28;20037;-71
2022/09/20 05:30:38;;;;;;;13.18;8.32;;;;;;;9.80;100.00;102283.63;5002582;28;20046;-72
2022/09/20 05:33:13;;;;;;;12.40;8.68;;;;;;;9.73;100.00;102287.09;5016439;28;20033;-72
2022/09/20 05:36:03;;;;;;;14.85;8.48;;;;;;;9.68;100.00;102287.91;5016076;28;20033;-72
2022/09/20 05:38:41;;;;;;;12.93;8.57;;;;;;;9.67;100.00;102305.28;5015761;28;20113;-72
2022/09/20 05:41:34;;;;;;;10.70;8.65;;;;;;;9.68;100.00;102296.63;5016256;28;20474;-72
2022/09/20 05:44:21;;;;;;;18.08;9.10;;;;;;;9.76;100.00;102304.47;5015338;28;20421;-72
2022/09/20 05:47:03;;;;;;;15.52;9.10;;;;;;;9.82;100.00;102299.28;5016525;28;20041;-72
2022/09/20 05:49:45;;;;;;;16.30;9.23;;;;;;;9.91;100.00;102304.50;5015804;28;20602;-72
2022/09/20 05:52:34;;;;;;;16.55;9.75;;;;;;;9.92;100.00;102295.81;5015551;28;20050;-71
2022/09/20 05:55:27;;;;;;;15.52;9.45;;;;;;;10.00;100.00;102298.44;5015995;28;20072;-72
2022/09/20 05:57:55;;;;;;;13.00;8.98;;;;;;;10.06;100.00;102314.09;5015357;28;20089;-72
2022/09/20 06:00:26;;;;;;;13.70;9.50;;;;;;;10.06;100.00;102301.06;5015814;28;20032;-72
2022/09/20 06:03:04;;;;;;;13.77;9.50;;;;;;;10.10;100.00;102305.41;5015944;28;20037;-72
2022/09/20 06:05:43;;;;;;;12.45;9.32;;;;;;;10.18;100.00;102318.47;5015276;28;20030;-72
2022/09/20 06:08:35;;;;;;;12.50;8.57;;;;;;;10.17;100.00;102307.19;5015788;28;20071;-72
2022/09/20 06:11:19;;;;;;;13.48;9.27;;;;;;;10.26;100.00;102320.22;5015486;28;20038;-72
2022/09/20 06:14:02;;;;;;;15.13;8.85;;;;;;;10.25;100.00;102315.00;5014717;28;20026;-72
2022/09/20 06:16:39;;;;;;;14.00;9.30;;;;;;;10.31;100.00;102326.31;5015559;28;20097;-72
2022/09/20 06:19:41;;;;;;;12.27;8.73;;;;;;;10.38;100.00;102324.59;5014766;28;20381;-72
2022/09/20 06:22:27;;;;;;;13.57;8.60;;;;;;;10.42;100.00;102323.72;5015590;28;20030;-72
2022/09/20 06:25:07;;;;;;;12.10;8.43;;;;;;;10.44;100.00;102331.56;5014565;28;20473;-72
2022/09/20 06:27:45;;;;;;;12.90;9.20;;;;;;;10.49;100.00;102333.28;5014601;28;20026;-72
2022/09/20 06:30:17;;;;;;;16.80;9.75;;;;;;;10.52;100.00;102329.81;5015319;28;20113;-72
2022/09/20 06:33:21;;;;;;;12.93;8.77;;;;;;;10.58;100.00;102334.19;5014740;28;20532;-72
2022/09/20 06:42:13;;;;;;;13.40;8.60;;;;;;;10.76;100.00;102331.56;5015008;28;20445;-72
2022/09/20 06:44:40;;;;;;;11.35;8.13;;;;;;;10.78;100.00;102333.28;5014773;28;20022;-72
2022/09/20 06:47:14;;;;;;;11.45;9.10;;;;;;;10.84;100.00;102328.94;5014190;28;20022;-72
2022/09/20 06:49:41;;;;;;;10.85;7.63;;;;;;;10.82;100.00;102328.06;5014793;28;20424;-72
2022/09/20 06:52:14;;;;;;;13.20;7.65;;;;;;;10.91;100.00;102330.69;5014604;28;20057;-72
2022/09/20 06:54:44;;;;;;;13.40;8.00;;;;;;;10.97;100.00;102328.06;5014221;28;20116;-72
2022/09/20 06:57:13;;;;;;;14.68;7.38;;;;;;;10.99;100.00;102332.41;5014816;28;20543;-72
2022/09/20 06:59:38;;;;;;;12.88;8.13;;;;;;;11.11;100.00;102331.50;5014538;28;20359;-72
2022/09/20 07:02:04;;;;;;;13.75;8.75;;;;;;;11.18;100.00;102329.75;5014442;28;20528;-72
2022/09/20 07:04:29;;;;;;;13.30;7.70;;;;;;;11.22;100.00;102340.22;5014686;28;20017;-72
2022/09/20 07:07:02;;;;;;;13.50;8.27;;;;;;;11.32;100.00;102330.59;5014535;28;20029;-72
2022/09/20 07:09:28;;;;;;;11.25;7.75;;;;;;;11.34;100.00;102323.63;5013826;28;20180;-72
2022/09/20 07:11:54;;;;;;;15.07;7.72;;;;;;;11.45;100.00;102331.44;5014493;28;20485;-72
2022/09/20 07:14:21;;;;;;;11.45;7.43;;;;;;;11.51;100.00;102333.13;5014507;28;20021;-72
2022/09/20 07:16:46;;;;;;;13.60;8.75;;;;;;;11.57;100.00;102330.50;5013866;28;20048;-72
2022/09/20 07:19:12;;;;;;;11.85;7.90;;;;;;;11.70;100.00;102332.19;5014549;28;20470;-72
2022/09/20 07:21:40;;;;;;;11.43;7.70;;;;;;;11.71;100.00;102329.59;5013957;28;20018;-72
2022/09/20 07:24:05;;;;;;;11.20;7.25;;;;;;;11.81;100.00;102329.56;5013909;28;20022;-72
2022/09/20 07:26:31;;;;;;;10.35;6.72;;;;;;;11.83;100.00;102333.88;5013933;28;20029;-72
2022/09/20 07:28:58;;;;;;;10.32;6.38;;;;;;;11.83;100.00;102323.41;5014225;28;20049;-72
2022/09/20 07:31:25;;;;;;;11.10;6.35;;;;;;;11.86;100.00;102323.44;5013573;28;20449;-72
2022/09/20 07:33:51;;;;;;;6.65;5.90;;;;;;;11.92;100.00;102327.78;5014197;28;20104;-72
2022/09/20 07:36:17;;;;;;;9.13;5.93;;;;;;;11.95;100.00;102330.38;5012682;28;20518;-72
2022/09/20 07:38:49;;;;;;;10.35;5.95;;;;;;;11.88;100.00;102313.84;5013588;28;20025;-72
2022/09/20 07:41:17;;;;;;;8.73;5.47;;;;;;;12.13;100.00;102330.28;5013868;28;20036;-72
2022/09/20 07:43:43;;;;;;;8.20;5.55;;;;;;;12.26;100.00;102338.91;5013365;28;20026;-72
2022/09/20 07:46:10;;;;;;;7.55;5.53;;;;;;;12.36;100.00;102335.34;5013882;28;20069;-72
2022/09/20 07:48:36;;;;;;;7.70;5.10;;;;;;;12.47;100.00;102337.03;5013390;28;20436;-72
2022/09/20 07:51:08;;;;;;;8.60;4.72;;;;;;;12.61;100.00;102348.22;5013276;28;20129;-72
2022/09/20 07:53:33;;;;;;;9.52;4.25;;;;;;;12.59;100.00;102336.94;5013547;28;20105;-72
2022/09/20 07:56:06;;;;;;;6.30;4.47;;;;;;;12.77;100.00;102347.22;5013814;28;20034;-72
2022/09/20 07:58:33;;;;;;;9.45;3.97;;;;;;;12.75;100.00;102322.84;5012960;28;20496;-72
2022/09/20 08:01:01;;;;;;;9.65;3.72;;;;;;;12.95;100.00;102350.56;5013862;28;20030;-72
2022/09/20 08:03:29;;;;;;;11.52;4.00;;;;;;;12.98;100.00;102353.16;5013268;28;20026;-72
2022/09/20 08:06:03;;;;;;;6.85;3.97;;;;;;;12.94;100.00;102361.91;5013083;28;20026;-72
2022/09/20 08:08:35;;;;;;;9.35;3.67;;;;;;;12.72;100.00;102361.22;5013310;28;20034;-72
2022/09/20 08:11:07;;;;;;;10.90;3.85;;;;;;;12.49;100.00;102364.00;5013503;28;20026;-72
2022/09/20 08:13:40;;;;;;;9.73;4.15;;;;;;;12.30;100.00;102352.84;5012744;28;20018;-72
2022/09/20 08:16:09;;;;;;;8.18;3.80;;;;;;;12.43;100.00;102370.19;5013366;28;20034;-72
2022/09/20 08:18:35;;;;;;;9.80;3.63;;;;;;;12.59;100.00;102365.72;5012361;28;20030;-72
2022/09/20 08:21:05;;;;;;;8.75;3.72;;;;;;;12.79;100.00;102363.78;5013572;28;20022;-72
2022/09/20 08:23:35;;;;;;;9.05;3.80;;;;;;;13.13;100.00;102366.97;5013461;28;20033;-72
2022/09/20 08:26:01;;;;;;;11.32;4.18;;;;;;;13.26;100.00;102364.25;5012943;28;20033;-72
2022/09/20 08:28:27;;;;;;;7.70;3.85;;;;;;;13.24;100.00;102365.97;5013012;28;20072;-72
2022/09/20 08:30:52;;;;;;;9.60;3.30;;;;;;;13.24;100.00;102366.91;5013018;28;20018;-72
2022/09/20 08:33:23;;;;;;;8.02;2.90;;;;;;;13.09;100.00;102369.63;5012686;28;20026;-73
2022/09/20 08:35:48;;;;;;;7.50;2.70;;;;;;;12.91;100.00;102368.03;5013104;28;20038;-72
2022/09/20 08:38:14;;;;;;;10.75;2.85;;;;;;;12.85;100.00;102370.69;5013054;28;20026;-72
2022/09/20 08:40:42;;;;;;;5.53;2.90;;;;;;;12.84;100.00;102364.59;5012211;28;20521;-72
2022/09/20 08:43:08;;;;;;;6.85;2.55;;;;;;;12.84;100.00;102374.22;5013132;28;20026;-72
2022/09/20 08:45:34;;;;;;;6.57;2.42;;;;;;;12.83;100.00;102360.25;5012525;28;20024;-72
2022/09/20 08:48:04;;;;;;;8.30;2.47;;;;;;;12.93;100.00;102373.28;5012015;28;20030;-72
2022/09/20 08:50:30;;;;;;;4.93;2.22;;;;;;;13.01;100.00;102363.59;5013064;28;20496;-72
2022/09/20 08:52:59;;;;;;;7.68;2.00;;;;;;;13.04;100.00;102361.81;5012248;28;20117;-72
2022/09/20 08:55:31;;;;;;;6.10;2.13;;;;;;;13.18;100.00;102387.88;5012274;28;20018;-72
2022/09/20 08:57:58;;;;;;;4.40;1.80;;;;;;;13.23;99.18;102386.06;5012903;28;20033;-75
2022/09/20 09:00:29;;;;;;;5.05;1.83;;;;;;;13.30;95.64;102385.16;5012437;28;20030;-77
2022/09/20 09:02:57;;;;;;;5.45;1.40;;;;;;;13.39;94.17;102384.19;5012555;28;20026;-73
2022/09/20 09:05:32;;;;;;;6.00;1.50;;;;;;;13.47;94.51;102386.72;5012472;28;20022;-72
2022/09/20 09:08:00;;;;;;;9.43;1.77;;;;;;;13.53;94.05;102384.03;5012248;28;20037;-72
2022/09/20 09:10:38;;;;;;;5.72;1.58;;;;;;;13.62;95.17;102380.47;5012532;28;20018;-72
2022/09/20 09:13:05;;;;;;;4.97;1.50;;;;;;;13.67;93.96;102382.16;5013347;28;20362;-72
2022/09/20 09:15:35;;;;;;;10.68;1.98;;;;;;;13.67;91.68;102381.25;5011872;28;20028;-72
2022/09/20 09:18:00;;;;;;;5.95;1.80;;;;;;;13.75;90.27;102382.03;5012840;28;20064;-72
2022/09/20 09:20:26;;;;;;;5.38;1.60;;;;;;;13.88;89.15;102382.75;5012341;28;20510;-73
2022/09/20 09:23:07;;;;;;;7.05;1.55;;;;;;;13.99;90.00;102386.09;5012169;28;20398;-72
2022/09/20 09:25:37;;;;;;;13.43;1.60;;;;;;;14.10;86.99;102378.97;5012660;28;20026;-72
2022/09/20 09:28:12;;;;;;;8.02;1.60;;;;;;;14.37;89.58;102363.72;5012402;28;20537;-72
2022/09/20 09:30:43;;;;;;;4.75;1.20;;;;;;;14.78;85.57;102372.72;5011914;28;20390;-72
2022/09/20 09:33:26;;;;;;;4.82;1.33;;;;;;;15.09;86.24;102373.94;5012659;28;20113;-72
2022/09/20 09:36:03;;;;;;;4.47;1.27;;;;;;;15.47;79.85;102375.00;5012249;28;20036;-72
2022/09/20 09:38:32;;;;;;;6.97;1.35;;;;;;;15.81;76.89;102376.97;5012100;28;20108;-72
2022/09/20 09:40:59;;;;;;;5.07;1.10;;;;;;;15.99;71.58;102368.69;5012419;28;20022;-73
2022/09/20 09:43:28;;;;;;;4.50;1.65;;;;;;;15.89;71.74;102375.91;5011738;28;20022;-72
2022/09/20 09:46:16;;;;;;;6.75;1.45;;;;;;;15.88;70.77;102365.41;5012380;28;20481;-72
2022/09/20 09:48:41;;;;;;;3.75;0.88;;;;;;;15.89;73.61;102377.66;5012177;28;20034;-72
2022/09/20 09:51:15;;;;;;;4.40;1.30;;;;;;;15.75;72.96;102374.47;5011653;28;20046;-72
2022/09/20 09:53:42;;;;;;;6.60;1.30;;;;;;;15.61;75.71;102382.59;5012290;28;20034;-72
2022/09/20 09:56:24;;;;;;;6.43;1.30;;;;;;;15.48;80.97;102376.72;5012119;28;20072;-72
2022/09/20 09:59:07;;;;;;;9.68;1.38;;;;;;;15.31;82.80;102389.31;5012270;28;20022;-72
2022/09/20 10:01:52;;;;;;;8.82;1.45;;;;;;;15.01;73.94;102383.72;5014836;28;20523;-72
2022/09/20 10:04:23;;;;;;;5.43;1.27;;;;;;;14.71;76.17;102393.84;5015430;28;20103;-72
2022/09/20 10:06:57;;;;;;;7.22;1.60;;;;;;;14.50;79.52;102395.03;5015677;28;20432;-72
2022/09/20 10:09:35;;;;;;;9.30;1.45;;;;;;;14.25;82.70;102380.50;5015257;28;20076;-72
2022/09/20 10:12:13;;;;;;;5.15;1.27;;;;;;;14.06;81.47;102393.03;5015356;28;20030;-72
2022/09/20 10:15:16;;;;;;;9.23;1.20;;;;;;;13.77;86.35;102391.63;5015545;28;20026;-72
2022/09/20 10:18:10;;;;;;;5.82;1.65;;;;;;;13.41;92.46;102395.53;5015154;28;20436;-72
2022/09/20 10:21:01;;;;;;;4.85;1.42;;;;;;;13.25;94.30;102394.81;5015592;28;20032;-72
2022/09/20 10:23:56;;;;;;;4.78;1.38;;;;;;;13.11;94.07;102378.31;5015194;28;20493;-72
2022/09/20 10:26:55;;;;;;;6.78;2.20;;;;;;;13.17;95.27;102390.50;5014904;28;20109;-72
2022/09/20 10:29:29;;;;;;;8.07;1.90;;;;;;;13.12;96.58;102387.94;5015293;28;20084;-72
2022/09/20 10:32:13;;;;;;;5.28;1.33;;;;;;;13.14;92.17;102399.25;5015293;28;20029;-72
2022/09/20 10:35:23;;;;;;;6.13;1.63;;;;;;;13.25;92.69;102394.81;5014741;28;20477;-72
2022/09/20 10:38:07;;;;;;;6.78;1.30;;;;;;;13.38;90.53;102392.09;5004750;28;20045;-72
2022/09/20 10:44:21;;;;;;;6.80;1.67;;;;;;;13.97;89.33;102387.91;5014983;28;20000;-72
2022/09/20 10:47:11;;;;;;;5.13;1.52;;;;;;;14.35;86.67;102383.84;4963272;28;20038;-72
2022/09/20 10:49:56;;;;;;;3.28;1.33;;;;;;;14.74;87.42;102388.53;5014752;28;20371;-72
2022/09/20 10:52:59;;;;;;;4.47;1.23;;;;;;;15.10;85.94;102388.78;5014408;28;20038;-72
2022/09/20 10:55:47;;;;;;;5.57;1.35;;;;;;;15.34;83.91;102390.13;4973008;28;20027;-73
2022/09/20 10:58:30;;;;;;;4.75;1.20;;;;;;;15.45;78.37;102393.41;5013118;28;20038;-72
2022/09/20 11:01:10;;;;;;;2.97;1.15;;;;;;;15.65;80.27;102387.75;5014191;28;20469;-72
2022/09/20 11:04:19;;;;;;;5.03;1.48;;;;;;;15.76;81.33;102387.59;5014407;28;20465;-72
2022/09/20 11:07:01;;;;;;;8.00;1.23;;;;;;;15.79;80.92;102387.50;5014223;28;20034;-72
2022/09/20 11:09:33;;;;;;;5.35;1.25;;;;;;;15.96;77.99;102388.91;5013632;28;20381;-72
2022/09/20 11:12:25;;;;;;;5.70;1.85;;;;;;;15.80;77.36;102396.28;5014304;28;20030;-72
2022/09/20 11:15:04;;;;;;;9.38;1.88;;;;;;;15.36;76.59;102396.19;5014109;28;20389;-72
2022/09/20 11:17:42;;;;;;;5.32;1.33;;;;;;;15.38;75.12;102401.44;5014191;28;20030;-72
2022/09/20 11:20:26;;;;;;;5.25;1.35;;;;;;;15.78;79.20;102396.28;5014554;28;20080;-72
2022/09/20 11:22:58;;;;;;;7.18;1.40;;;;;;;16.22;74.11;102402.38;5014131;28;20119;-72
2022/09/20 11:25:43;;;;;;;5.70;1.70;;;;;;;16.97;78.30;102390.09;5014367;28;20030;-72
2022/09/20 11:28:36;;;;;;;5.75;1.63;;;;;;;17.75;71.23;102392.34;5014214;28;20277;-72
2022/09/20 11:31:22;;;;;;;8.05;1.88;;;;;;;17.88;72.64;102390.25;5014465;28;20036;-72
2022/09/20 11:33:51;;;;;;;6.93;1.90;;;;;;;17.50;71.24;102403.59;5013969;28;20022;-72
2022/09/20 11:37:00;;;;;;;5.80;1.15;;;;;;;17.06;73.38;102389.81;5013725;28;20042;-72
2022/09/20 11:39:45;;;;;;;7.38;1.45;;;;;;;16.57;73.37;102404.19;4972672;28;20469;-72
2022/09/20 11:42:15;;;;;;;5.78;1.40;;;;;;;16.02;73.34;102415.97;4972966;28;20173;-72
2022/09/20 11:44:41;;;;;;;5.60;1.40;;;;;;;15.54;72.61;102412.53;4999487;28;20504;-72
2022/09/20 11:47:18;;;;;;;5.70;1.10;;;;;;;15.08;73.15;102414.22;5013601;28;20519;-72
2022/09/20 11:50:31;;;;;;;5.70;1.55;;;;;;;14.82;73.97;102419.91;5013264;28;20156;-72
2022/09/20 11:53:34;;;;;;;8.10;1.20;;;;;;;14.70;76.28;102417.47;5013541;28;20076;-72
2022/09/20 11:56:22;;;;;;;10.43;1.33;;;;;;;14.72;74.52;102413.94;5013673;28;20036;-72
2022/09/20 11:58:59;;;;;;;7.53;1.27;;;;;;;14.89;74.01;102413.66;5013135;28;20115;-72
2022/09/20 12:01:41;;;;;;;4.68;1.10;;;;;;;15.19;75.12;102414.03;5013085;28;20025;-72
2022/09/20 12:04:10;;;;;;;2.20;0.90;;;;;;;15.55;74.79;102423.00;5013390;28;20033;-72
2022/09/20 12:06:39;;;;;;;6.05;1.30;;;;;;;15.75;73.21;102419.16;5013409;28;20028;-72
2022/09/20 12:09:21;;;;;;;2.28;0.80;;;;;;;15.88;67.30;102416.25;5013391;28;20465;-72
2022/09/20 12:11:47;;;;;;;6.65;1.60;;;;;;;16.00;72.30;102411.63;5012948;28;20034;-72
2022/09/20 12:14:23;;;;;;;5.20;1.30;;;;;;;16.13;75.61;102413.97;5013672;28;20135;-72
2022/09/20 12:16:49;;;;;;;6.68;1.40;;;;;;;15.95;71.55;102395.94;5013444;28;20101;-71
2022/09/20 12:19:31;;;;;;;3.85;1.02;;;;;;;16.03;72.09;102416.84;5012961;28;20021;-72
2022/09/20 12:21:59;;;;;;;4.82;1.30;;;;;;;16.06;71.29;102415.00;5013069;28;20029;-72
2022/09/20 12:24:28;;;;;;;6.30;1.00;;;;;;;16.23;71.17;102413.78;5012453;28;20028;-72